Airfield :
LOGIN :

Register | Disclaimer

   EN    FR    IT 

 










Legend :    VFR   Marginal VFR   IFR   Intensive IFR   Very Intensive IFR
Visi :
Ceiling :
>= 8 km
>= 3000ft
5 to 8 km
1000 to 3000 ft
1500m to 5 km
500 to 1000 ft
800 to 1500m
200 to 500 ft
< 800m
< 200 ft
Symbols :   Thunderstorms  Fog  Heavy snow  Heavy precipitations  Wind > 20 kt
SIGMETs :     Misc.  Thunderstorms  Icing  Turbulence  Mountain Waves  Volcanic Ashes







- Airport Elevation : 200 ft


EBBL - Klein Brogel AB

CURRENT METAR :
  • 190655Z VRB01KT 8000 SCT260 11/10 Q1011 BLU BLU

EXPIRED METARs :
  • 190625Z VRB01KT 8000 SCT260 10/10 Q1011 BLU BLU
  • 190555Z VRB01KT 6000 SCT260 10/10 Q1011 WHT WHT
  • 190533Z VRB01KT 6000 SCT260 10/10 Q1011 WHT WHT
  • 190525Z VRB01KT 6000 SCT260 10/10 Q1011 WHT BLU BECMG WHT
  • 190455Z VRB02KT 9999 SKC 10/10 Q1011 BLU BLU BECMG WHT
  • 190425Z VRB01KT 9999 SKC 10/10 Q1011 BLU BLU BECMG WHT
  • 190355Z VRB01KT 9999 SKC 10/10 Q1011 BLU BLU BECMG WHT

TAF TAF EBBL
Valid from the 19 at 07:00 until the 19 at 16:00 UTC


190541Z 1907/1916 16004KT 9999 SCT160
BECMG 1908/1910 FEW025 SCT140
No reported NOTAMs for that airfield.



MET'MAP, your aeronautical weather chart ! - Copyright ORBIFLY December 2007 - Disclaimer

ORBIFLY MET'MAP TEAM :

Programming & Development : Alexandra Zaïnal
Concept & Development : Baudouin d'Aumeries
Co-Development & Prog : Marc-Olivier Méhu
Technical & hardware support : Manuel Goepfert

Contact : metmap@orbifly.com




SOURCES & CREDITS :

   NOAA